createdAt,value
2022-11-22T00:03:35.423Z,1.70
2022-11-22T00:08:37.254Z,1.63
2022-11-22T00:13:38.833Z,1.50
2022-11-22T00:18:40.565Z,1.47
2022-11-22T00:23:42.327Z,1.53
2022-11-22T00:28:44.034Z,1.43
2022-11-22T00:33:45.760Z,1.67
2022-11-22T00:38:47.543Z,1.90
2022-11-22T00:43:49.486Z,1.40
2022-11-22T00:48:51.159Z,1.50
2022-11-22T00:53:52.694Z,1.80
2022-11-22T00:58:54.352Z,1.50
2022-11-22T01:03:55.871Z,1.70
2022-11-22T01:08:57.387Z,1.30
2022-11-22T01:13:59.034Z,1.63
2022-11-22T01:19:00.613Z,1.43
2022-11-22T01:24:02.159Z,1.60
2022-11-22T01:29:03.859Z,1.50
2022-11-22T01:34:05.852Z,1.40
2022-11-22T01:39:07.498Z,1.60
2022-11-22T01:44:29.696Z,1.30
2022-11-22T01:49:34.970Z,1.27
2022-11-22T01:54:40.442Z,1.50
2022-11-22T01:59:45.584Z,1.40
2022-11-22T02:04:47.712Z,1.20
2022-11-22T02:09:52.236Z,1.10
2022-11-22T02:14:54.145Z,1.10
2022-11-22T02:19:56.870Z,1.40
2022-11-22T02:25:09.210Z,1.20
2022-11-22T02:30:11.073Z,1.50
2022-11-22T02:35:24.337Z,1.30
2022-11-22T02:40:28.152Z,1.53
2022-11-22T02:45:30.047Z,1.30
2022-11-22T02:50:31.690Z,1.57
2022-11-22T02:55:33.511Z,1.60
2022-11-22T03:00:36.445Z,1.67
2022-11-22T03:05:38.056Z,1.67
2022-11-22T03:10:39.568Z,1.37
2022-11-22T03:15:41.195Z,1.50
2022-11-22T03:20:42.841Z,1.30
2022-11-22T03:25:44.676Z,1.50
2022-11-22T03:30:46.367Z,1.20
2022-11-22T03:35:47.944Z,1.70
2022-11-22T03:40:49.580Z,1.50
2022-11-22T03:45:51.134Z,1.40
2022-11-22T03:50:52.715Z,1.77
2022-11-22T03:55:54.458Z,1.40
2022-11-22T04:00:56.573Z,1.40
2022-11-22T04:05:58.167Z,1.70
2022-11-22T04:11:00.933Z,1.60
2022-11-22T04:16:02.472Z,1.60
2022-11-22T04:21:22.807Z,1.70
2022-11-22T04:26:24.344Z,1.70
2022-11-22T04:31:49.085Z,1.87
2022-11-22T04:36:50.662Z,1.67
2022-11-22T04:42:14.587Z,1.57
2022-11-22T04:47:37.916Z,1.80
2022-11-22T04:52:54.406Z,2.20
2022-11-22T06:16:22.277Z,1.90
2022-11-22T06:21:25.976Z,1.90
2022-11-22T06:26:27.665Z,2.20
2022-11-22T06:31:30.716Z,2.20
2022-11-22T06:36:34.299Z,1.90
2022-11-22T06:41:37.321Z,2.40
2022-11-22T06:46:39.223Z,2.70
2022-11-22T06:51:41.011Z,2.03
2022-11-22T06:56:42.889Z,2.17
2022-11-22T07:01:44.921Z,1.90
2022-11-22T07:06:47.377Z,2.30
2022-11-22T07:11:48.987Z,1.90
2022-11-22T07:16:50.952Z,2.03
2022-11-22T07:21:52.604Z,2.10
2022-11-22T07:26:54.428Z,2.03
2022-11-22T07:31:56.024Z,1.90
2022-11-22T07:37:00.616Z,1.97
2022-11-22T07:42:05.315Z,1.70
2022-11-22T07:47:06.894Z,1.93
2022-11-22T07:52:08.426Z,1.80
2022-11-22T07:57:10.037Z,1.60
2022-11-22T08:02:12.341Z,2.00
2022-11-22T08:07:14.104Z,1.70
2022-11-22T08:12:15.820Z,1.67
2022-11-22T08:17:17.803Z,1.50
2022-11-22T08:22:19.560Z,2.00
2022-11-22T08:27:21.249Z,3.20
2022-11-22T08:32:24.112Z,2.20
2022-11-22T08:37:26.307Z,2.10
2022-11-22T08:42:28.154Z,1.70
2022-11-22T08:47:31.114Z,1.40
2022-11-22T08:52:34.505Z,1.60
2022-11-22T08:57:36.093Z,1.60
2022-11-22T09:02:38.020Z,1.90
2022-11-22T09:13:02.441Z,2.10
2022-11-22T09:18:04.261Z,1.80
2022-11-22T09:23:07.061Z,1.70
2022-11-22T09:28:08.690Z,2.00
2022-11-22T09:33:10.340Z,1.53
2022-11-22T09:38:11.994Z,1.50
2022-11-22T09:43:27.936Z,1.67
2022-11-22T09:49:06.198Z,1.43
2022-11-22T09:54:10.998Z,1.43
2022-11-22T09:59:16.118Z,1.60
2022-11-22T10:04:23.240Z,1.50
2022-11-22T10:09:48.249Z,1.60
2022-11-22T10:14:55.069Z,1.53
2022-11-22T10:20:03.206Z,1.40
2022-11-22T10:25:17.384Z,1.67
2022-11-22T10:30:20.885Z,1.73
2022-11-22T10:35:26.282Z,1.40
2022-11-22T10:40:47.164Z,1.40
2022-11-22T10:46:18.340Z,1.43
2022-11-22T10:51:34.689Z,1.23
2022-11-22T10:56:50.118Z,1.27
2022-11-22T11:02:00.479Z,1.10
2022-11-22T11:07:12.239Z,0.90
2022-11-22T11:12:22.172Z,1.40
2022-11-22T11:17:27.891Z,1.43
2022-11-22T11:23:06.477Z,1.30
2022-11-22T11:27:57.988Z,1.30
2022-11-22T11:33:16.081Z,1.17
2022-11-22T11:38:27.391Z,1.50
2022-11-22T11:43:29.088Z,1.27
2022-11-22T11:48:41.190Z,1.20
2022-11-22T11:54:13.847Z,1.47
2022-11-22T11:59:19.767Z,1.50
2022-11-22T12:04:24.188Z,1.20
2022-11-22T12:09:37.169Z,1.03
2022-11-22T12:15:03.770Z,1.33
2022-11-22T12:20:06.931Z,1.27
2022-11-22T12:25:36.105Z,1.27
2022-11-22T12:30:40.460Z,1.30
2022-11-22T12:35:43.994Z,1.60
2022-11-22T12:40:49.600Z,1.10
2022-11-22T12:45:54.935Z,1.10
2022-11-22T12:51:01.481Z,1.20
2022-11-22T12:56:33.643Z,1.37
2022-11-22T13:01:42.010Z,1.13
2022-11-22T13:06:43.684Z,1.00
2022-11-22T13:11:54.462Z,1.40
2022-11-22T13:16:57.185Z,1.10
2022-11-22T13:22:05.073Z,0.97
2022-11-22T13:27:19.824Z,0.93
2022-11-22T13:32:23.755Z,0.90
2022-11-22T13:37:26.874Z,1.40
2022-11-22T13:42:28.958Z,1.27
2022-11-22T13:47:40.965Z,1.00
2022-11-22T13:52:53.704Z,1.50
2022-11-22T13:57:55.506Z,0.90
2022-11-22T14:03:15.761Z,1.20
2022-11-22T14:08:38.693Z,1.20
2022-11-22T14:13:52.201Z,1.10
2022-11-22T14:18:59.469Z,0.97
2022-11-22T14:24:57.458Z,0.90
2022-11-22T14:30:15.404Z,1.00
2022-11-22T14:35:29.233Z,1.20
2022-11-22T14:40:36.377Z,1.20
2022-11-22T14:45:44.029Z,1.13
2022-11-22T14:50:50.812Z,1.20
2022-11-22T14:55:56.666Z,1.10
2022-11-22T15:01:31.892Z,0.97
2022-11-22T15:09:18.601Z,0.93
2022-11-22T15:12:31.952Z,0.77
2022-11-22T16:01:42.964Z,1.10
2022-11-22T16:06:47.671Z,0.93
2022-11-22T16:11:53.947Z,1.00
2022-11-22T16:16:55.696Z,1.17
2022-11-22T16:22:01.202Z,0.90
2022-11-22T16:27:05.903Z,0.93
2022-11-22T16:32:12.623Z,1.27
2022-11-22T16:37:36.384Z,1.10
2022-11-22T16:42:41.884Z,1.20
2022-11-22T16:47:54.189Z,0.90
2022-11-22T16:53:02.795Z,0.90
2022-11-22T16:58:14.429Z,0.87
2022-11-22T17:03:23.183Z,1.07
2022-11-22T17:08:25.894Z,0.80
2022-11-22T17:13:27.988Z,1.20
2022-11-22T17:18:29.979Z,1.10
2022-11-22T17:23:36.678Z,1.00
2022-11-22T17:28:41.349Z,0.90
2022-11-22T17:33:43.291Z,0.90
2022-11-22T17:38:45.020Z,1.10
2022-11-22T17:43:46.811Z,1.00
2022-11-22T17:48:57.761Z,1.20
2022-11-22T17:53:59.760Z,1.13
2022-11-22T17:59:01.871Z,1.17
2022-11-22T18:04:04.834Z,1.60
2022-11-22T18:09:06.445Z,1.40
2022-11-22T18:14:09.077Z,1.20
2022-11-22T18:19:10.825Z,1.03
2022-11-22T18:24:12.624Z,1.00
2022-11-22T18:34:36.269Z,1.40
2022-11-22T18:39:39.861Z,1.10
2022-11-22T18:44:41.764Z,1.13
2022-11-22T18:49:43.483Z,0.93
2022-11-22T18:54:47.312Z,1.27
2022-11-22T18:59:49.040Z,1.17
2022-11-22T19:04:51.548Z,1.33
2022-11-22T19:09:53.486Z,1.10
2022-11-22T19:14:55.213Z,1.20
2022-11-22T19:19:59.858Z,1.03
2022-11-22T19:25:01.692Z,1.20
2022-11-22T19:30:04.305Z,1.10
2022-11-22T19:35:06.836Z,1.30
2022-11-22T19:40:09.938Z,1.30
2022-11-22T19:45:11.638Z,1.20
2022-11-22T19:50:13.975Z,1.30
2022-11-22T19:55:15.688Z,1.20
2022-11-22T20:00:17.585Z,1.20
2022-11-22T20:05:19.723Z,1.30
2022-11-22T20:10:22.698Z,1.33
2022-11-22T20:15:24.501Z,1.50
2022-11-22T20:20:26.463Z,1.30
2022-11-22T20:25:28.456Z,1.60
2022-11-22T20:30:30.269Z,1.50
2022-11-22T20:35:32.176Z,1.70
2022-11-22T20:40:34.156Z,1.60
2022-11-22T20:45:36.472Z,1.40
2022-11-22T20:50:38.235Z,1.40
2022-11-22T20:55:46.064Z,1.50
2022-11-22T21:00:48.163Z,1.60
2022-11-22T21:05:57.146Z,1.70
2022-11-22T21:11:14.695Z,1.47
2022-11-22T21:16:26.380Z,1.80
2022-11-22T21:21:32.824Z,1.60
2022-11-22T21:26:34.870Z,1.80
2022-11-22T21:31:36.791Z,1.70
2022-11-22T21:36:38.533Z,1.40
2022-11-22T21:41:41.337Z,1.73
2022-11-22T21:46:58.197Z,1.60
2022-11-22T21:52:03.657Z,1.57
2022-11-22T21:57:06.709Z,1.70
2022-11-22T22:02:09.063Z,1.37
2022-11-22T22:07:29.725Z,1.67
2022-11-22T22:12:33.579Z,1.50
2022-11-22T22:17:35.699Z,1.70
2022-11-22T22:22:38.153Z,2.03
2022-11-22T22:27:40.022Z,1.70
2022-11-22T22:32:42.087Z,1.67
2022-11-22T22:37:45.066Z,1.50
2022-11-22T22:42:47.067Z,1.70
2022-11-22T22:47:49.239Z,1.90
2022-11-22T22:52:50.936Z,1.70
2022-11-22T22:57:52.578Z,1.50
2022-11-22T23:02:55.893Z,1.60
2022-11-22T23:07:57.646Z,1.80
2022-11-22T23:12:59.790Z,2.00
2022-11-22T23:18:01.593Z,1.47
2022-11-22T23:23:03.280Z,1.30
2022-11-22T23:28:04.997Z,1.73
2022-11-22T23:33:06.704Z,1.60
2022-11-22T23:38:08.378Z,1.70
2022-11-22T23:43:10.159Z,1.50
2022-11-22T23:48:11.791Z,1.90
2022-11-22T23:53:13.595Z,1.50
2022-11-22T23:58:15.333Z,1.67
